createdAt,value
2022-08-03T00:01:27.783Z,21.38
2022-08-03T00:03:54.548Z,20.33
2022-08-03T00:06:21.254Z,19.52
2022-08-03T00:08:47.996Z,17.55
2022-08-03T00:11:14.739Z,14.30
2022-08-03T00:13:41.481Z,17.30
2022-08-03T00:16:08.566Z,16.45
2022-08-03T00:18:35.605Z,14.50
2022-08-03T00:21:02.665Z,12.50
2022-08-03T00:23:51.904Z,21.42
2022-08-03T00:26:16.171Z,12.48
2022-08-03T00:28:43.074Z,13.73
2022-08-03T00:31:13.480Z,16.33
2022-08-03T00:33:58.973Z,13.23
2022-08-03T00:36:27.376Z,15.27
2022-08-03T00:38:54.246Z,21.90
2022-08-03T00:41:20.968Z,15.45
2022-08-03T00:43:47.855Z,19.60
2022-08-03T00:46:20.628Z,19.88
2022-08-03T00:48:51.095Z,16.45
2022-08-03T00:51:18.698Z,10.15
2022-08-03T00:53:45.980Z,13.43
2022-08-03T00:56:16.423Z,18.00
2022-08-03T00:58:46.358Z,12.07
2022-08-03T01:01:13.194Z,23.83
2022-08-03T01:03:40.265Z,19.15
2022-08-03T01:06:18.986Z,21.73
2022-08-03T01:08:59.207Z,14.43
2022-08-03T01:11:34.092Z,13.23
2022-08-03T01:14:18.890Z,14.32
2022-08-03T01:17:24.938Z,18.85
2022-08-03T01:19:59.536Z,13.75
2022-08-03T01:22:50.321Z,13.57
2022-08-03T01:25:40.334Z,15.82
2022-08-03T01:28:34.030Z,16.80
2022-08-03T01:31:03.949Z,16.77
2022-08-03T01:33:47.019Z,14.93
2022-08-03T01:36:14.811Z,13.30
2022-08-03T01:38:53.516Z,28.80
2022-08-03T01:41:26.338Z,20.23
2022-08-03T01:44:26.863Z,16.47
2022-08-03T01:46:40.570Z,20.38
2022-08-03T01:49:14.757Z,16.10
2022-08-03T01:52:02.723Z,13.13
2022-08-03T01:54:29.355Z,25.73
2022-08-03T01:56:56.896Z,25.92
2022-08-03T01:59:23.633Z,16.83
2022-08-03T02:02:28.225Z,15.98
2022-08-03T02:04:37.198Z,21.00
2022-08-03T02:07:03.998Z,27.25
2022-08-03T02:09:30.976Z,17.83
2022-08-03T02:11:57.844Z,16.30
2022-08-03T02:14:24.647Z,19.15
2022-08-03T02:16:51.421Z,24.90
2022-08-03T02:19:18.283Z,19.65
2022-08-03T02:21:57.006Z,18.83
2022-08-03T02:24:29.078Z,18.92
2022-08-03T02:26:56.198Z,22.02
2022-08-03T02:29:40.222Z,19.75
2022-08-03T02:32:12.473Z,18.02
2022-08-03T02:34:40.083Z,17.35
2022-08-03T02:37:06.986Z,19.30
2022-08-03T02:39:33.762Z,19.35
2022-08-03T02:42:03.446Z,18.83
2022-08-03T02:44:32.614Z,19.20
2022-08-03T02:47:02.503Z,18.52
2022-08-03T02:49:40.791Z,13.55
2022-08-03T02:52:17.334Z,15.38
2022-08-03T02:54:44.667Z,12.90
2022-08-03T02:57:11.415Z,12.88
2022-08-03T02:59:38.179Z,13.63
2022-08-03T03:02:04.987Z,18.83
2022-08-03T03:04:33.267Z,12.50
2022-08-03T03:07:00.249Z,10.00
2022-08-03T03:09:39.952Z,18.80
2022-08-03T03:12:08.972Z,18.55
2022-08-03T03:14:36.930Z,14.27
2022-08-03T03:17:03.773Z,10.23
2022-08-03T03:19:31.422Z,10.55
2022-08-03T03:21:59.031Z,21.45
2022-08-03T03:24:25.737Z,19.02
2022-08-03T03:26:52.458Z,10.95
2022-08-03T03:29:19.182Z,17.23
2022-08-03T03:31:45.942Z,12.30
2022-08-03T03:34:12.672Z,11.02
2022-08-03T03:36:39.395Z,16.08
2022-08-03T03:39:15.467Z,13.23
2022-08-03T03:41:43.208Z,15.55
2022-08-03T03:44:09.962Z,14.75
2022-08-03T03:46:37.110Z,17.15
2022-08-03T03:49:05.494Z,15.05
2022-08-03T03:51:32.319Z,17.38
2022-08-03T03:54:00.016Z,24.38
2022-08-03T03:56:26.898Z,20.90
2022-08-03T03:58:53.715Z,12.27
2022-08-03T04:01:20.482Z,15.57
2022-08-03T04:03:47.269Z,21.70
2022-08-03T04:06:32.439Z,21.80
2022-08-03T04:09:17.790Z,16.55
2022-08-03T04:11:51.529Z,10.32
2022-08-03T04:14:37.573Z,17.60
2022-08-03T04:17:06.073Z,17.42
2022-08-03T04:19:37.833Z,15.50
2022-08-03T04:22:07.286Z,13.70
2022-08-03T04:24:57.367Z,16.10
2022-08-03T04:27:26.746Z,13.32
2022-08-03T04:29:54.166Z,19.75
2022-08-03T04:32:20.942Z,18.42
2022-08-03T04:34:47.708Z,16.50
2022-08-03T04:37:39.240Z,17.38
2022-08-03T04:40:18.226Z,10.85
2022-08-03T04:42:49.645Z,16.48
2022-08-03T04:45:16.778Z,12.77
2022-08-03T04:47:43.583Z,16.55
2022-08-03T04:50:12.922Z,14.95
2022-08-03T04:52:39.848Z,19.08
2022-08-03T04:55:07.033Z,22.40
2022-08-03T04:57:33.854Z,24.40
2022-08-03T05:00:03.425Z,18.00
2022-08-03T05:02:31.257Z,15.85
2022-08-03T05:04:58.255Z,14.63
2022-08-03T05:07:25.353Z,19.52
2022-08-03T05:09:57.659Z,18.08
2022-08-03T05:12:32.933Z,13.70
2022-08-03T05:15:00.192Z,12.27
2022-08-03T05:17:26.990Z,19.35
2022-08-03T05:19:54.019Z,19.65
2022-08-03T05:22:21.401Z,12.82
2022-08-03T05:24:48.542Z,14.82
2022-08-03T05:27:19.425Z,17.75
2022-08-03T05:29:46.590Z,13.27
2022-08-03T05:32:13.401Z,12.88
2022-08-03T05:34:40.172Z,17.05
2022-08-03T05:37:10.309Z,15.40
2022-08-03T05:39:37.129Z,19.77
2022-08-03T05:42:04.087Z,11.18
2022-08-03T05:44:31.688Z,13.85
2022-08-03T05:46:59.300Z,11.27
2022-08-03T05:49:26.109Z,15.93
2022-08-03T05:52:00.134Z,14.43
2022-08-03T05:54:55.857Z,18.33
2022-08-03T05:57:24.912Z,19.25
2022-08-03T05:59:54.691Z,12.52
2022-08-03T06:02:26.615Z,17.02
2022-08-03T06:04:53.499Z,16.77
2022-08-03T06:07:20.208Z,8.93
2022-08-03T06:10:37.277Z,13.55
2022-08-03T06:12:36.174Z,11.35
2022-08-03T06:15:04.249Z,12.55
2022-08-03T06:17:37.656Z,13.63
2022-08-03T06:22:32.228Z,10.20
2022-08-03T06:24:58.975Z,13.80
2022-08-03T06:27:36.642Z,7.07
2022-08-03T06:30:04.858Z,9.38
2022-08-03T06:32:31.657Z,6.68
2022-08-03T06:34:58.388Z,15.65
2022-08-03T06:37:26.954Z,8.63
2022-08-03T06:39:54.230Z,10.80
2022-08-03T06:42:21.033Z,9.45
2022-08-03T06:44:49.520Z,6.43
2022-08-03T06:47:16.258Z,8.75
2022-08-03T06:49:43.058Z,5.95
2022-08-03T06:52:10.112Z,12.52
2022-08-03T06:54:36.938Z,7.45
2022-08-03T06:57:04.081Z,6.93
2022-08-03T07:00:09.680Z,6.10
2022-08-03T07:02:19.895Z,6.00
2022-08-03T07:04:48.441Z,6.00
2022-08-03T07:07:15.264Z,10.52
2022-08-03T07:09:42.061Z,7.70
2022-08-03T07:12:24.173Z,5.95
2022-08-03T07:14:50.885Z,4.38
2022-08-03T07:17:18.303Z,6.70
2022-08-03T07:19:45.120Z,7.50
2022-08-03T07:22:11.978Z,8.73
2022-08-03T07:24:38.798Z,9.13
2022-08-03T07:27:05.588Z,7.55
2022-08-03T07:29:34.715Z,6.88
2022-08-03T07:32:01.996Z,7.65
2022-08-03T07:34:28.797Z,4.82
2022-08-03T07:36:55.627Z,5.35
2022-08-03T07:39:22.642Z,4.55
2022-08-03T07:41:51.505Z,5.47
2022-08-03T07:44:21.306Z,6.57
2022-08-03T07:46:48.196Z,5.72
2022-08-03T07:49:14.961Z,6.88
2022-08-03T07:51:41.727Z,3.30
2022-08-03T07:54:10.371Z,6.03
2022-08-03T07:56:37.449Z,3.78
2022-08-03T07:59:04.256Z,5.10
2022-08-03T08:01:32.778Z,6.57
2022-08-03T08:03:59.659Z,3.95
2022-08-03T08:06:26.416Z,3.67
2022-08-03T08:08:53.931Z,3.85
2022-08-03T08:11:22.284Z,6.63
2022-08-03T08:13:48.994Z,3.38
2022-08-03T08:16:15.714Z,4.63
2022-08-03T08:18:42.453Z,5.78
2022-08-03T08:21:10.223Z,6.03
2022-08-03T08:23:43.768Z,2.63
2022-08-03T08:26:12.322Z,4.22
2022-08-03T08:28:39.326Z,2.53
2022-08-03T08:31:06.374Z,3.58
2022-08-03T08:34:02.715Z,2.67
2022-08-03T08:36:21.475Z,2.08
2022-08-03T08:38:48.203Z,1.88
2022-08-03T08:41:15.183Z,1.88
2022-08-03T08:43:42.148Z,7.28
2022-08-03T08:46:12.019Z,3.22
2022-08-03T08:48:41.601Z,1.38
2022-08-03T08:51:09.177Z,4.18
2022-08-03T08:53:37.244Z,5.38
2022-08-03T08:56:04.233Z,3.47
2022-08-03T08:58:37.197Z,1.00
2022-08-03T09:01:05.407Z,4.03
2022-08-03T09:03:34.276Z,4.07
2022-08-03T09:06:01.433Z,1.75
2022-08-03T09:08:29.557Z,3.15
2022-08-03T09:10:56.338Z,7.05
2022-08-03T09:13:23.153Z,3.78
2022-08-03T09:16:00.561Z,7.22
2022-08-03T09:18:32.541Z,6.18
2022-08-03T09:21:37.514Z,5.07
2022-08-03T09:24:07.105Z,8.65
2022-08-03T09:26:37.609Z,5.70
2022-08-03T09:29:14.858Z,15.73
2022-08-03T09:31:43.856Z,22.63
2022-08-03T09:34:17.038Z,2.50
2022-08-03T09:36:50.959Z,1.65
2022-08-03T09:39:40.683Z,12.15
2022-08-03T09:42:17.535Z,10.13
2022-08-03T09:44:48.618Z,8.70
2022-08-03T09:47:17.033Z,6.95
2022-08-03T09:50:02.433Z,26.65
2022-08-03T09:52:38.909Z,16.98
2022-08-03T09:56:30.892Z,17.90
2022-08-03T09:58:11.080Z,7.03
2022-08-03T10:00:54.082Z,11.02
2022-08-03T10:03:21.173Z,20.15
2022-08-03T10:05:47.886Z,16.30
2022-08-03T10:08:15.344Z,5.35
2022-08-03T10:10:43.568Z,11.07
2022-08-03T10:13:18.343Z,6.53
2022-08-03T10:16:23.956Z,6.22
2022-08-03T10:18:32.835Z,4.05
2022-08-03T10:21:03.405Z,4.32
2022-08-03T10:23:34.060Z,6.38
2022-08-03T10:26:02.698Z,5.75
2022-08-03T10:28:41.599Z,6.45
2022-08-03T10:31:11.793Z,9.18
2022-08-03T10:33:49.652Z,2.75
2022-08-03T10:36:17.332Z,5.72
2022-08-03T10:38:47.756Z,4.85
2022-08-03T10:41:15.280Z,2.42
2022-08-03T10:43:44.640Z,4.78
2022-08-03T10:46:11.526Z,2.70
2022-08-03T10:48:38.297Z,4.82
2022-08-03T10:51:06.739Z,3.28
2022-08-03T10:53:38.146Z,9.25
2022-08-03T10:56:35.463Z,4.22
2022-08-03T10:59:11.925Z,4.55
2022-08-03T11:02:00.219Z,4.55
2022-08-03T11:04:29.549Z,3.65
2022-08-03T11:07:19.136Z,5.80
2022-08-03T11:09:56.104Z,4.88
2022-08-03T11:12:28.400Z,4.38
2022-08-03T11:15:00.378Z,8.13
2022-08-03T11:17:27.132Z,7.22
2022-08-03T11:19:58.187Z,4.55
2022-08-03T11:22:25.532Z,3.53
2022-08-03T11:24:54.341Z,4.07
2022-08-03T11:27:24.928Z,8.38
2022-08-03T11:29:58.396Z,8.43
2022-08-03T11:32:40.509Z,6.22
2022-08-03T11:35:26.241Z,6.03
2022-08-03T11:38:03.558Z,7.18
2022-08-03T11:40:48.520Z,5.20
2022-08-03T11:43:30.815Z,3.97
2022-08-03T11:46:02.649Z,4.57
2022-08-03T11:48:43.278Z,4.05
2022-08-03T11:51:40.531Z,4.60
2022-08-03T11:54:07.627Z,7.97
2022-08-03T11:56:48.496Z,11.52
2022-08-03T11:59:20.408Z,13.73
2022-08-03T12:01:48.365Z,3.60
2022-08-03T12:04:16.304Z,8.40
2022-08-03T12:07:00.371Z,9.13
2022-08-03T12:09:27.235Z,8.40
2022-08-03T12:12:00.941Z,8.30
2022-08-03T12:14:48.711Z,9.18
2022-08-03T12:17:17.108Z,4.32
2022-08-03T12:19:44.309Z,6.45
2022-08-03T12:22:11.108Z,6.35
2022-08-03T12:24:42.621Z,5.07
2022-08-03T12:27:09.434Z,5.22
2022-08-03T12:29:36.188Z,5.35
2022-08-03T12:32:02.936Z,4.60
2022-08-03T12:34:49.162Z,5.03
2022-08-03T12:37:23.389Z,14.98
2022-08-03T12:40:02.511Z,5.28
2022-08-03T12:42:36.798Z,5.47
2022-08-03T12:45:19.831Z,10.60
2022-08-03T12:48:08.706Z,2.90
2022-08-03T12:50:36.467Z,8.80
2022-08-03T12:53:05.304Z,4.65
2022-08-03T12:55:56.603Z,13.82
2022-08-03T12:58:35.895Z,11.25
2022-08-03T13:01:10.073Z,13.93
2022-08-03T13:03:50.436Z,5.97
2022-08-03T13:06:24.630Z,4.13
2022-08-03T13:09:02.800Z,11.02
2022-08-03T13:11:57.549Z,7.78
2022-08-03T13:14:20.231Z,7.50
2022-08-03T13:16:48.423Z,12.85
2022-08-03T13:19:16.058Z,6.78
2022-08-03T13:22:01.977Z,9.02
2022-08-03T13:24:31.392Z,5.43
2022-08-03T13:26:59.029Z,6.65
2022-08-03T13:29:25.871Z,12.07
2022-08-03T13:31:52.623Z,6.40
2022-08-03T13:34:23.198Z,10.50
2022-08-03T13:37:08.483Z,4.10
2022-08-03T13:39:57.183Z,6.35
2022-08-03T13:42:22.836Z,8.88
2022-08-03T13:44:49.652Z,28.73
2022-08-03T13:47:16.445Z,8.43
2022-08-03T13:49:59.982Z,8.80
2022-08-03T13:52:32.793Z,3.33
2022-08-03T13:55:00.145Z,8.05
2022-08-03T13:58:02.613Z,3.80
2022-08-03T14:00:16.650Z,6.07
2022-08-03T14:02:55.335Z,5.03
2022-08-03T14:05:25.252Z,4.40
2022-08-03T14:07:52.085Z,4.07
2022-08-03T14:10:29.927Z,8.68
2022-08-03T14:13:00.196Z,6.97
2022-08-03T14:15:28.500Z,3.63
2022-08-03T14:17:56.061Z,10.88
2022-08-03T14:20:36.898Z,5.65
2022-08-03T14:23:06.788Z,3.42
2022-08-03T14:25:44.366Z,8.57
2022-08-03T14:28:18.279Z,10.48
2022-08-03T14:30:45.158Z,7.72
2022-08-03T14:33:11.879Z,7.03
2022-08-03T14:35:38.641Z,9.32
2022-08-03T14:38:05.377Z,9.65
2022-08-03T14:40:32.335Z,5.13
2022-08-03T14:42:59.059Z,8.02
2022-08-03T14:45:25.770Z,4.20
2022-08-03T14:50:27.908Z,4.18
2022-08-03T14:50:43.152Z,11.27
2022-08-03T14:53:12.410Z,6.90
2022-08-03T14:55:50.586Z,6.53
2022-08-03T14:58:22.402Z,4.63
2022-08-03T15:00:50.127Z,6.18
2022-08-03T15:03:20.467Z,7.63
2022-08-03T15:05:47.446Z,9.05
2022-08-03T15:08:14.316Z,10.55
2022-08-03T15:10:44.313Z,44.67
2022-08-03T15:13:12.881Z,5.95
2022-08-03T15:15:40.056Z,6.90
2022-08-03T15:18:06.903Z,7.70
2022-08-03T15:20:43.750Z,3.42
2022-08-03T15:23:11.867Z,4.72
2022-08-03T15:26:28.330Z,4.68
2022-08-03T15:28:25.343Z,5.25
2022-08-03T15:30:52.885Z,5.68
2022-08-03T15:33:19.647Z,3.65
2022-08-03T15:35:47.536Z,5.18
2022-08-03T15:38:14.553Z,5.57
2022-08-03T15:40:41.454Z,4.35
2022-08-03T15:43:08.283Z,3.00
2022-08-03T15:45:36.309Z,4.30
2022-08-03T15:48:04.033Z,4.78
2022-08-03T15:50:30.808Z,6.15
2022-08-03T15:52:57.596Z,8.48
2022-08-03T15:55:24.714Z,1.98
2022-08-03T15:59:10.361Z,7.65
2022-08-03T16:00:38.707Z,5.63
2022-08-03T16:03:05.517Z,4.00
2022-08-03T16:05:32.606Z,7.10
2022-08-03T16:08:03.635Z,2.78
2022-08-03T16:10:31.142Z,4.93
2022-08-03T16:13:00.679Z,4.43
2022-08-03T16:15:27.610Z,4.63
2022-08-03T16:17:54.410Z,4.97
2022-08-03T16:20:30.913Z,2.30
2022-08-03T16:23:07.024Z,6.90
2022-08-03T16:25:39.395Z,4.32
2022-08-03T16:28:13.144Z,3.70
2022-08-03T16:30:41.727Z,6.05
2022-08-03T16:33:08.531Z,3.95
2022-08-03T16:35:35.541Z,3.67
2022-08-03T16:38:06.540Z,5.07
2022-08-03T16:40:36.418Z,2.50
2022-08-03T16:43:19.004Z,1.88
2022-08-03T16:45:46.589Z,2.80
2022-08-03T16:48:13.552Z,3.15
2022-08-03T16:50:40.476Z,2.10
2022-08-03T16:53:09.130Z,1.00
2022-08-03T16:55:49.173Z,3.33
2022-08-03T16:58:34.448Z,3.00
2022-08-03T17:01:20.759Z,3.45
2022-08-03T17:04:01.182Z,0.60
2022-08-03T17:06:34.269Z,8.77
2022-08-03T17:09:02.198Z,4.20
2022-08-03T17:11:32.054Z,5.47
2022-08-03T17:13:59.870Z,1.92
2022-08-03T17:16:26.616Z,1.67
2022-08-03T17:19:02.289Z,2.50
2022-08-03T17:21:32.396Z,2.05
2022-08-03T17:24:21.228Z,2.33
2022-08-03T17:26:52.643Z,2.10
2022-08-03T17:29:23.155Z,1.77
2022-08-03T17:31:52.355Z,5.03
2022-08-03T17:34:19.909Z,3.97
2022-08-03T17:37:03.723Z,2.88
2022-08-03T17:39:55.863Z,4.72
2022-08-03T17:42:30.268Z,2.45
2022-08-03T17:45:02.358Z,6.22
2022-08-03T17:47:41.306Z,1.98
2022-08-03T17:50:24.539Z,3.42
2022-08-03T17:52:52.303Z,3.60
2022-08-03T17:55:57.715Z,5.43
2022-08-03T17:58:13.824Z,1.50
2022-08-03T18:03:58.594Z,3.35
2022-08-03T18:06:29.106Z,3.35
2022-08-03T18:08:56.595Z,2.13
2022-08-03T18:11:23.948Z,2.90
2022-08-03T18:14:17.311Z,3.15
2022-08-03T18:17:00.335Z,4.88
2022-08-03T18:22:14.276Z,4.45
2022-08-03T18:24:41.863Z,1.92
2022-08-03T18:27:10.658Z,6.30
2022-08-03T18:29:37.469Z,4.32
2022-08-03T18:32:07.777Z,4.82
2022-08-03T18:34:41.065Z,2.30
2022-08-03T18:37:24.746Z,4.50
2022-08-03T18:42:39.271Z,5.85
2022-08-03T18:45:55.688Z,5.30
2022-08-03T18:48:15.583Z,3.13
2022-08-03T18:50:53.578Z,3.67
2022-08-03T18:54:03.097Z,4.22
2022-08-03T18:56:49.866Z,2.55
2022-08-03T18:59:33.197Z,4.97
2022-08-03T19:02:09.405Z,7.28
2022-08-03T19:04:46.434Z,6.75
2022-08-03T19:07:22.204Z,6.07
2022-08-03T19:09:55.516Z,2.30
2022-08-03T19:12:41.537Z,2.70
2022-08-03T19:15:13.387Z,6.97
2022-08-03T19:17:50.121Z,8.90
2022-08-03T19:20:21.219Z,5.03
2022-08-03T19:22:50.343Z,3.58
2022-08-03T19:25:17.420Z,16.38
2022-08-03T19:27:47.348Z,8.68
2022-08-03T19:30:35.679Z,4.20
2022-08-03T19:33:10.401Z,4.50
2022-08-03T19:35:52.178Z,3.28
2022-08-03T19:38:28.311Z,5.38
2022-08-03T19:41:01.139Z,3.75
2022-08-03T19:43:53.118Z,5.97
2022-08-03T19:46:21.408Z,5.55
2022-08-03T19:48:58.428Z,5.45
2022-08-03T19:51:58.284Z,3.38
2022-08-03T19:54:17.672Z,4.95
2022-08-03T19:56:56.797Z,6.20
2022-08-03T19:59:24.427Z,6.38
2022-08-03T20:01:53.215Z,6.85
2022-08-03T20:04:21.526Z,6.85
2022-08-03T20:06:49.680Z,9.02
2022-08-03T20:09:16.511Z,9.32
2022-08-03T20:11:44.990Z,9.98
2022-08-03T20:14:11.921Z,8.98
2022-08-03T20:16:48.156Z,7.55
2022-08-03T20:19:16.786Z,7.35
2022-08-03T20:21:47.650Z,7.18
2022-08-03T20:24:24.188Z,5.65
2022-08-03T20:26:53.492Z,7.22
2022-08-03T20:30:07.457Z,5.28
2022-08-03T20:32:34.357Z,5.13
2022-08-03T20:35:01.104Z,7.30
2022-08-03T20:37:27.907Z,7.18
2022-08-03T20:39:57.475Z,3.97
2022-08-03T20:42:24.706Z,7.78
2022-08-03T20:45:04.392Z,4.70
2022-08-03T20:47:36.904Z,5.22
2022-08-03T20:50:17.275Z,3.92
2022-08-03T20:52:49.389Z,4.63
2022-08-03T20:55:16.942Z,5.25
2022-08-03T20:57:49.184Z,6.45
2022-08-03T21:00:19.490Z,5.18
2022-08-03T21:02:49.039Z,4.75
2022-08-03T21:05:15.833Z,6.90
2022-08-03T21:08:05.660Z,3.65
2022-08-03T21:10:31.058Z,3.40
2022-08-03T21:13:04.990Z,7.57
2022-08-03T21:16:13.031Z,5.45
2022-08-03T21:18:39.906Z,7.22
2022-08-03T21:21:07.378Z,4.53
2022-08-03T21:23:40.195Z,3.35
2022-08-03T21:26:16.707Z,2.97
2022-08-03T21:28:43.389Z,3.72
2022-08-03T21:31:10.390Z,3.35
2022-08-03T21:33:37.091Z,4.13
2022-08-03T21:36:04.193Z,3.28
2022-08-03T21:38:32.360Z,2.42
2022-08-03T21:40:59.328Z,2.13
2022-08-03T21:43:26.369Z,3.85
2022-08-03T21:46:01.844Z,3.50
2022-08-03T21:48:31.434Z,3.65
2022-08-03T21:51:00.908Z,4.40
2022-08-03T21:53:28.077Z,4.65
2022-08-03T21:56:14.686Z,3.25
2022-08-03T21:58:44.218Z,6.25
2022-08-03T22:01:19.633Z,8.98
2022-08-03T22:03:53.041Z,3.88
2022-08-03T22:06:27.034Z,2.00
2022-08-03T22:11:21.483Z,2.22
2022-08-03T22:13:48.353Z,3.63
2022-08-03T22:16:15.349Z,2.17
2022-08-03T22:18:44.231Z,2.88
2022-08-03T22:21:12.988Z,2.70
2022-08-03T22:23:44.675Z,5.72
2022-08-03T22:26:15.296Z,3.78
2022-08-03T22:28:42.310Z,3.30
2022-08-03T22:31:30.756Z,3.10
2022-08-03T22:33:55.943Z,3.90
2022-08-03T22:36:23.807Z,4.75
2022-08-03T22:38:52.017Z,2.80
2022-08-03T22:41:21.095Z,5.03
2022-08-03T22:43:49.426Z,2.33
2022-08-03T22:46:18.690Z,2.53
2022-08-03T22:48:46.510Z,3.45
2022-08-03T22:51:14.082Z,2.63
2022-08-03T22:53:40.915Z,3.65
2022-08-03T22:56:08.242Z,4.38
2022-08-03T22:58:34.981Z,4.18
2022-08-03T23:01:07.618Z,4.45
2022-08-03T23:04:01.248Z,3.63
2022-08-03T23:06:23.711Z,3.45
2022-08-03T23:08:50.458Z,5.97
2022-08-03T23:11:17.914Z,5.82
2022-08-03T23:13:45.223Z,4.40
2022-08-03T23:16:11.975Z,9.05
2022-08-03T23:18:39.612Z,3.78
2022-08-03T23:21:11.524Z,3.05
2022-08-03T23:23:44.283Z,6.43
2022-08-03T23:26:12.710Z,10.82
2022-08-03T23:28:39.778Z,2.40
2022-08-03T23:31:07.742Z,6.72
2022-08-03T23:33:34.530Z,6.13
2022-08-03T23:36:20.135Z,2.85
2022-08-03T23:38:48.439Z,5.03
2022-08-03T23:41:15.172Z,7.53
2022-08-03T23:43:51.398Z,3.88
2022-08-03T23:46:21.334Z,4.45
2022-08-03T23:48:48.054Z,5.18
2022-08-03T23:51:27.058Z,8.15
2022-08-03T23:54:21.162Z,5.03
2022-08-03T23:59:21.751Z,4.55
